createdAt,value
2019-02-16T14:28:07.534Z,0.00
2019-02-16T14:30:45.859Z,0.00
2019-02-16T14:31:46.064Z,0.00
2019-02-16T14:33:18.896Z,0.00
2019-02-16T14:34:19.094Z,0.00
2019-02-16T14:35:52.004Z,0.00
2019-02-16T14:36:52.258Z,0.00
2019-02-16T14:57:57.051Z,253.12
2019-02-16T14:58:57.258Z,241.88
2019-02-16T14:59:57.446Z,236.25
2019-02-16T15:00:57.644Z,241.88
2019-02-16T15:01:57.846Z,253.12
2019-02-16T15:02:58.057Z,247.50
2019-02-16T15:03:58.249Z,236.25
2019-02-16T15:04:58.444Z,230.62
2019-02-16T15:05:58.640Z,236.25
2019-02-16T15:06:58.829Z,236.25
2019-02-16T15:07:59.020Z,236.25
2019-02-16T15:08:59.210Z,230.62
2019-02-16T15:09:59.401Z,225.00
2019-02-16T15:10:59.584Z,213.75
2019-02-16T15:11:59.767Z,208.12
2019-02-16T15:12:59.967Z,208.12
2019-02-16T15:14:00.162Z,213.75
2019-02-16T15:15:00.369Z,213.75
2019-02-16T15:16:00.557Z,213.75
2019-02-16T15:17:00.742Z,208.12
2019-02-16T15:18:00.957Z,196.88
2019-02-16T15:19:01.156Z,191.25
2019-02-16T15:20:01.341Z,191.25
2019-02-16T15:21:01.536Z,185.62
2019-02-16T15:22:02.855Z,185.62
2019-02-16T15:23:03.007Z,180.00
2019-02-16T15:24:03.197Z,180.00
2019-02-16T15:25:03.339Z,174.38
2019-02-16T15:26:03.489Z,174.38
2019-02-16T15:27:03.642Z,168.75
2019-02-16T15:28:03.778Z,163.12
2019-02-16T15:29:03.946Z,163.12
2019-02-16T15:30:04.072Z,151.88
2019-02-16T15:31:04.202Z,168.75
2019-02-16T15:32:04.344Z,151.88
2019-02-16T15:33:04.509Z,157.50
2019-02-16T15:34:04.689Z,157.50
2019-02-16T15:35:04.843Z,151.88
2019-02-16T15:41:09.383Z,135.00
2019-02-16T15:42:27.406Z,129.38
2019-02-16T16:24:33.737Z,33.75
2019-02-16T16:26:52.254Z,28.12
2019-02-16T16:28:11.420Z,28.12
2019-02-16T16:43:04.704Z,0.00
2019-02-16T16:44:13.213Z,0.00
2019-02-16T16:47:25.261Z,0.00
2019-02-16T16:48:32.387Z,0.00
